sensor_id;sensor_type;location;lat;lon;timestamp;pressure;altitude;pressure_sealevel;temperature;humidity
46303;BME280;32029;51.358;5.628;2023-02-02T00:01:10;101912.03;;;10.61;87.28
46303;BME280;32029;51.358;5.628;2023-02-02T00:03:53;101904.97;;;10.50;87.36
46303;BME280;32029;51.358;5.628;2023-02-02T00:06:32;101921.84;;;10.63;88.13
46303;BME280;32029;51.358;5.628;2023-02-02T00:09:03;101911.69;;;10.55;88.26
46303;BME280;32029;51.358;5.628;2023-02-02T00:11:31;101862.75;;;10.25;88.74
46303;BME280;32029;51.358;5.628;2023-02-02T00:13:59;101917.34;;;10.54;88.27
46303;BME280;32029;51.358;5.628;2023-02-02T00:16:33;101906.72;;;10.59;88.60
46303;BME280;32029;51.358;5.628;2023-02-02T00:19:17;101913.25;;;10.58;88.32
46303;BME280;32029;51.358;5.628;2023-02-02T00:22:00;101904.63;;;10.53;88.59
46303;BME280;32029;51.358;5.628;2023-02-02T00:24:43;101902.91;;;10.52;87.97
46303;BME280;32029;51.358;5.628;2023-02-02T00:27:26;101906.38;;;10.54;88.00
46303;BME280;32029;51.358;5.628;2023-02-02T00:30:07;101820.91;;;10.05;87.83
46303;BME280;32029;51.358;5.628;2023-02-02T00:32:49;101863.59;;;10.25;87.81
46303;BME280;32029;51.358;5.628;2023-02-02T00:35:38;101901.50;;;10.48;87.36
46303;BME280;32029;51.358;5.628;2023-02-02T00:38:22;101907.69;;;10.50;87.30
46303;BME280;32029;51.358;5.628;2023-02-02T00:41:10;101909.47;;;10.59;86.60
46303;BME280;32029;51.358;5.628;2023-02-02T00:43:56;101908.13;;;10.63;86.56
46303;BME280;32029;51.358;5.628;2023-02-02T00:46:57;101910.88;;;10.63;85.99
46303;BME280;32029;51.358;5.628;2023-02-02T00:49:43;101885.03;;;10.48;85.91
46303;BME280;32029;51.358;5.628;2023-02-02T00:52:28;101928.06;;;10.65;85.38
46303;BME280;32029;51.358;5.628;2023-02-02T00:55:15;101919.81;;;10.65;85.60
46303;BME280;32029;51.358;5.628;2023-02-02T00:58:03;101916.03;;;10.66;84.97
46303;BME280;32029;51.358;5.628;2023-02-02T01:00:49;101901.56;;;10.56;84.88
46303;BME280;32029;51.358;5.628;2023-02-02T01:03:30;101924.28;;;10.66;84.88
46303;BME280;32029;51.358;5.628;2023-02-02T01:06:11;101882.78;;;10.43;84.69
46303;BME280;32029;51.358;5.628;2023-02-02T01:08:52;101927.72;;;10.68;84.79
46303;BME280;32029;51.358;5.628;2023-02-02T01:11:36;101872.44;;;10.37;84.55
46303;BME280;32029;51.358;5.628;2023-02-02T01:14:18;101866.94;;;10.37;84.53
46303;BME280;32029;51.358;5.628;2023-02-02T01:17:01;101922.63;;;10.73;84.44
46303;BME280;32029;51.358;5.628;2023-02-02T01:19:46;101876.97;;;10.46;84.12
46303;BME280;32029;51.358;5.628;2023-02-02T01:22:31;101926.91;;;10.76;84.30
46303;BME280;32029;51.358;5.628;2023-02-02T01:25:15;101922.25;;;10.76;84.12
46303;BME280;32029;51.358;5.628;2023-02-02T01:27:59;101931.59;;;10.84;83.94
46303;BME280;32029;51.358;5.628;2023-02-02T01:30:43;101926.94;;;10.84;83.86
46303;BME280;32029;51.358;5.628;2023-02-02T01:33:24;101910.28;;;10.77;83.93
46303;BME280;32029;51.358;5.628;2023-02-02T01:35:53;101858.25;;;10.42;84.03
46303;BME280;32029;51.358;5.628;2023-02-02T01:38:21;101920.25;;;10.78;84.06
46303;BME280;32029;51.358;5.628;2023-02-02T01:40:51;101929.50;;;10.77;84.23
46303;BME280;32029;51.358;5.628;2023-02-02T01:46:11;101941.13;;;10.71;84.67
46303;BME280;32029;51.358;5.628;2023-02-02T01:48:42;101921.16;;;10.61;84.61
46303;BME280;32029;51.358;5.628;2023-02-02T01:51:13;101912.22;;;10.59;84.35
46303;BME280;32029;51.358;5.628;2023-02-02T01:53:42;101938.75;;;10.76;84.41
46303;BME280;32029;51.358;5.628;2023-02-02T01:56:14;101930.34;;;10.78;84.39
46303;BME280;32029;51.358;5.628;2023-02-02T01:58:43;101915.00;;;10.67;84.51
46303;BME280;32029;51.358;5.628;2023-02-02T02:01:11;101920.72;;;10.74;84.36
46303;BME280;32029;51.358;5.628;2023-02-02T02:03:39;101927.38;;;10.71;84.32
46303;BME280;32029;51.358;5.628;2023-02-02T02:06:12;101923.63;;;10.72;84.34
46303;BME280;32029;51.358;5.628;2023-02-02T02:08:42;101927.25;;;10.73;84.54
46303;BME280;32029;51.358;5.628;2023-02-02T02:11:13;101875.66;;;10.33;84.41
46303;BME280;32029;51.358;5.628;2023-02-02T02:13:41;101882.94;;;10.42;84.86
46303;BME280;32029;51.358;5.628;2023-02-02T02:31:58;101927.44;;;10.79;83.90
46303;BME280;32029;51.358;5.628;2023-02-02T02:40:07;101930.50;;;10.76;84.22
46303;BME280;32029;51.358;5.628;2023-02-02T02:42:44;101914.97;;;10.59;84.07
46303;BME280;32029;51.358;5.628;2023-02-02T02:45:12;101894.13;;;10.48;84.32
46303;BME280;32029;51.358;5.628;2023-02-02T02:47:41;101927.03;;;10.66;84.25
46303;BME280;32029;51.358;5.628;2023-02-02T02:50:09;101889.13;;;10.44;84.41
46303;BME280;32029;51.358;5.628;2023-02-02T02:52:37;101895.47;;;10.44;84.73
46303;BME280;32029;51.358;5.628;2023-02-02T02:55:05;101894.94;;;10.41;84.58
46303;BME280;32029;51.358;5.628;2023-02-02T03:08:30;101935.63;;;10.71;84.40
46303;BME280;32029;51.358;5.628;2023-02-02T03:11:00;101896.88;;;10.48;84.27
46303;BME280;32029;51.358;5.628;2023-02-02T03:13:30;101941.44;;;10.68;84.56
46303;BME280;32029;51.358;5.628;2023-02-02T03:15:58;101914.41;;;10.55;84.44
46303;BME280;32029;51.358;5.628;2023-02-02T03:18:30;101945.97;;;10.77;84.05
46303;BME280;32029;51.358;5.628;2023-02-02T03:20:58;101856.63;;;10.31;84.00
46303;BME280;32029;51.358;5.628;2023-02-02T03:23:25;101875.25;;;10.45;84.15
46303;BME280;32029;51.358;5.628;2023-02-02T03:25:52;101858.88;;;10.36;84.03
46303;BME280;32029;51.358;5.628;2023-02-02T03:28:20;101913.13;;;10.68;84.05
46303;BME280;32029;51.358;5.628;2023-02-02T03:30:49;101903.81;;;10.61;84.12
46303;BME280;32029;51.358;5.628;2023-02-02T03:33:16;101896.78;;;10.58;83.67
46303;BME280;32029;51.358;5.628;2023-02-02T03:35:44;101866.81;;;10.39;83.77
46303;BME280;32029;51.358;5.628;2023-02-02T03:38:10;101940.16;;;10.81;83.93
46303;BME280;32029;51.358;5.628;2023-02-02T03:40:38;101919.53;;;10.76;83.66
46303;BME280;32029;51.358;5.628;2023-02-02T03:43:05;101906.78;;;10.67;83.37
46303;BME280;32029;51.358;5.628;2023-02-02T03:45:32;101913.19;;;10.76;83.49
46303;BME280;32029;51.358;5.628;2023-02-02T03:48:05;101844.09;;;10.28;83.50
46303;BME280;32029;51.358;5.628;2023-02-02T03:50:32;101882.16;;;10.49;83.57
46303;BME280;32029;51.358;5.628;2023-02-02T03:52:59;101930.84;;;10.73;83.49
46303;BME280;32029;51.358;5.628;2023-02-02T03:55:25;101900.16;;;10.52;83.66
46303;BME280;32029;51.358;5.628;2023-02-02T03:57:52;101907.91;;;10.57;83.74
46303;BME280;32029;51.358;5.628;2023-02-02T04:00:19;101946.59;;;10.71;84.05
46303;BME280;32029;51.358;5.628;2023-02-02T04:02:46;101937.75;;;10.77;83.82
46303;BME280;32029;51.358;5.628;2023-02-02T04:05:13;101942.91;;;10.81;83.83
46303;BME280;32029;51.358;5.628;2023-02-02T04:07:40;101949.09;;;10.83;83.48
46303;BME280;32029;51.358;5.628;2023-02-02T04:10:07;101948.41;;;10.81;83.48
46303;BME280;32029;51.358;5.628;2023-02-02T04:12:33;101960.94;;;10.83;83.77
46303;BME280;32029;51.358;5.628;2023-02-02T04:15:00;101907.69;;;10.50;83.31
46303;BME280;32029;51.358;5.628;2023-02-02T04:17:27;101952.69;;;10.83;83.63
46303;BME280;32029;51.358;5.628;2023-02-02T04:19:53;101938.38;;;10.71;83.65
46303;BME280;32029;51.358;5.628;2023-02-02T04:22:26;101958.09;;;10.93;83.34
46303;BME280;32029;51.358;5.628;2023-02-02T04:24:53;101883.53;;;10.53;83.41
46303;BME280;32029;51.358;5.628;2023-02-02T04:27:20;101952.41;;;10.94;83.24
46303;BME280;32029;51.358;5.628;2023-02-02T04:29:46;101963.00;;;10.81;83.16
46303;BME280;32029;51.358;5.628;2023-02-02T04:32:14;101966.97;;;10.87;83.41
46303;BME280;32029;51.358;5.628;2023-02-02T04:34:41;101959.03;;;10.84;83.63
46303;BME280;32029;51.358;5.628;2023-02-02T04:37:09;101962.44;;;10.77;83.66
46303;BME280;32029;51.358;5.628;2023-02-02T04:39:36;101957.28;;;10.74;83.92
46303;BME280;32029;51.358;5.628;2023-02-02T04:42:03;101963.09;;;10.71;83.99
46303;BME280;32029;51.358;5.628;2023-02-02T04:44:29;101966.84;;;10.70;84.38
46303;BME280;32029;51.358;5.628;2023-02-02T04:46:56;101989.91;;;10.77;84.37
46303;BME280;32029;51.358;5.628;2023-02-02T04:49:23;101977.56;;;10.82;83.95
46303;BME280;32029;51.358;5.628;2023-02-02T04:51:49;101947.34;;;10.55;84.01
46303;BME280;32029;51.358;5.628;2023-02-02T04:54:16;101963.25;;;10.70;84.11
46303;BME280;32029;51.358;5.628;2023-02-02T04:56:43;101974.44;;;10.76;84.03
46303;BME280;32029;51.358;5.628;2023-02-02T04:59:10;101955.97;;;10.61;84.76
46303;BME280;32029;51.358;5.628;2023-02-02T05:01:36;101975.16;;;10.78;85.17
46303;BME280;32029;51.358;5.628;2023-02-02T05:04:03;101871.59;;;10.19;85.09
46303;BME280;32029;51.358;5.628;2023-02-02T05:06:30;101923.75;;;10.45;84.92
46303;BME280;32029;51.358;5.628;2023-02-02T05:08:58;101911.72;;;10.38;85.19
46303;BME280;32029;51.358;5.628;2023-02-02T05:11:26;101974.06;;;10.71;85.06
46303;BME280;32029;51.358;5.628;2023-02-02T05:13:53;101968.88;;;10.68;84.87
46303;BME280;32029;51.358;5.628;2023-02-02T05:16:22;101960.81;;;10.67;84.83
46303;BME280;32029;51.358;5.628;2023-02-02T05:18:53;101920.56;;;10.49;84.83
46303;BME280;32029;51.358;5.628;2023-02-02T05:21:20;101955.09;;;10.60;84.92
46303;BME280;32029;51.358;5.628;2023-02-02T05:23:47;101977.28;;;10.67;85.00
46303;BME280;32029;51.358;5.628;2023-02-02T05:26:16;101912.97;;;10.25;85.17
46303;BME280;32029;51.358;5.628;2023-02-02T05:28:44;101971.25;;;10.63;85.06
46303;BME280;32029;51.358;5.628;2023-02-02T05:31:11;101996.88;;;10.72;85.01
46303;BME280;32029;51.358;5.628;2023-02-02T05:33:37;101985.69;;;10.65;85.11
46303;BME280;32029;51.358;5.628;2023-02-02T05:36:06;101935.22;;;10.40;85.22
46303;BME280;32029;51.358;5.628;2023-02-02T05:38:34;101991.94;;;10.75;84.84
46303;BME280;32029;51.358;5.628;2023-02-02T05:41:01;101991.63;;;10.78;84.76
46303;BME280;32029;51.358;5.628;2023-02-02T05:43:29;101989.25;;;10.84;84.64
46303;BME280;32029;51.358;5.628;2023-02-02T05:45:56;101977.94;;;10.87;84.70
46303;BME280;32029;51.358;5.628;2023-02-02T05:48:23;101926.69;;;10.43;84.38
46303;BME280;32029;51.358;5.628;2023-02-02T05:51:10;101967.53;;;10.72;84.57
46303;BME280;32029;51.358;5.628;2023-02-02T05:53:38;101929.41;;;10.61;84.68
46303;BME280;32029;51.358;5.628;2023-02-02T05:56:04;101978.81;;;10.87;84.41
46303;BME280;32029;51.358;5.628;2023-02-02T05:58:31;101987.22;;;10.86;84.54
46303;BME280;32029;51.358;5.628;2023-02-02T06:00:58;101937.94;;;10.58;84.24
46303;BME280;32029;51.358;5.628;2023-02-02T06:03:24;101984.84;;;10.91;84.30
46303;BME280;32029;51.358;5.628;2023-02-02T06:05:51;101992.03;;;10.92;84.47
46303;BME280;32029;51.358;5.628;2023-02-02T06:08:18;101989.69;;;10.97;84.30
46303;BME280;32029;51.358;5.628;2023-02-02T06:10:45;101958.69;;;10.78;84.51
46303;BME280;32029;51.358;5.628;2023-02-02T06:13:11;101980.94;;;10.75;83.93
46303;BME280;32029;51.358;5.628;2023-02-02T06:15:38;101965.13;;;10.69;84.07
46303;BME280;32029;51.358;5.628;2023-02-02T06:18:05;102000.09;;;10.85;84.39
46303;BME280;32029;51.358;5.628;2023-02-02T06:20:34;101897.63;;;10.33;84.23
46303;BME280;32029;51.358;5.628;2023-02-02T06:23:01;101995.19;;;10.97;84.16
46303;BME280;32029;51.358;5.628;2023-02-02T06:25:28;101997.16;;;10.87;84.24
46303;BME280;32029;51.358;5.628;2023-02-02T06:27:58;101993.63;;;10.94;84.07
46303;BME280;32029;51.358;5.628;2023-02-02T06:30:27;101929.66;;;10.50;84.14
46303;BME280;32029;51.358;5.628;2023-02-02T06:32:53;102013.31;;;10.90;84.52
46303;BME280;32029;51.358;5.628;2023-02-02T06:35:20;102008.88;;;10.89;84.38
46303;BME280;32029;51.358;5.628;2023-02-02T06:37:47;101987.16;;;10.77;84.28
46303;BME280;32029;51.358;5.628;2023-02-02T06:40:14;101959.06;;;10.58;84.51
46303;BME280;32029;51.358;5.628;2023-02-02T06:42:41;102012.16;;;10.92;84.35
46303;BME280;32029;51.358;5.628;2023-02-02T06:45:08;101991.50;;;10.62;84.30
46303;BME280;32029;51.358;5.628;2023-02-02T06:47:35;101990.91;;;10.76;84.58
46303;BME280;32029;51.358;5.628;2023-02-02T06:50:02;101968.69;;;10.62;84.23
46303;BME280;32029;51.358;5.628;2023-02-02T06:52:29;101988.88;;;10.78;84.51
46303;BME280;32029;51.358;5.628;2023-02-02T06:54:55;101953.38;;;10.59;84.04
46303;BME280;32029;51.358;5.628;2023-02-02T06:57:22;102020.16;;;10.86;84.43
46303;BME280;32029;51.358;5.628;2023-02-02T06:59:49;102019.13;;;10.87;84.51
46303;BME280;32029;51.358;5.628;2023-02-02T07:02:16;101953.16;;;10.52;84.43
46303;BME280;32029;51.358;5.628;2023-02-02T07:04:43;102033.94;;;10.94;84.25
46303;BME280;32029;51.358;5.628;2023-02-02T07:07:09;102020.03;;;10.95;84.05
46303;BME280;32029;51.358;5.628;2023-02-02T07:09:36;102024.13;;;10.91;84.41
46303;BME280;32029;51.358;5.628;2023-02-02T07:12:03;102038.91;;;10.90;84.54
46303;BME280;32029;51.358;5.628;2023-02-02T07:14:29;102011.56;;;10.81;84.42
46303;BME280;32029;51.358;5.628;2023-02-02T07:16:57;102038.41;;;10.95;84.09
46303;BME280;32029;51.358;5.628;2023-02-02T07:19:24;101980.34;;;10.64;84.16
46303;BME280;32029;51.358;5.628;2023-02-02T07:21:51;102015.41;;;10.70;84.30
46303;BME280;32029;51.358;5.628;2023-02-02T07:24:17;102041.47;;;10.92;84.51
46303;BME280;32029;51.358;5.628;2023-02-02T07:26:44;102030.78;;;10.81;84.69
46303;BME280;32029;51.358;5.628;2023-02-02T07:29:12;102050.59;;;10.92;84.59
46303;BME280;32029;51.358;5.628;2023-02-02T07:31:41;102025.66;;;10.86;84.54
46303;BME280;32029;51.358;5.628;2023-02-02T07:34:08;102036.63;;;10.86;84.62
46303;BME280;32029;51.358;5.628;2023-02-02T07:36:35;102031.41;;;10.74;84.42
46303;BME280;32029;51.358;5.628;2023-02-02T07:39:03;102044.56;;;10.89;84.53
46303;BME280;32029;51.358;5.628;2023-02-02T07:41:33;102020.03;;;10.69;84.71
46303;BME280;32029;51.358;5.628;2023-02-02T07:44:11;102057.75;;;10.85;85.15
46303;BME280;32029;51.358;5.628;2023-02-02T07:46:51;102051.41;;;10.85;85.77
46303;BME280;32029;51.358;5.628;2023-02-02T07:49:28;102050.50;;;10.84;85.54
46303;BME280;32029;51.358;5.628;2023-02-02T07:52:14;102051.72;;;10.82;86.19
46303;BME280;32029;51.358;5.628;2023-02-02T07:54:59;102029.38;;;10.59;86.09
46303;BME280;32029;51.358;5.628;2023-02-02T07:57:46;102020.50;;;10.65;85.84
46303;BME280;32029;51.358;5.628;2023-02-02T08:00:30;102005.16;;;10.54;85.63
46303;BME280;32029;51.358;5.628;2023-02-02T08:03:14;102042.94;;;10.78;85.55
46303;BME280;32029;51.358;5.628;2023-02-02T08:05:57;102057.94;;;10.92;85.43
46303;BME280;32029;51.358;5.628;2023-02-02T08:08:39;102029.38;;;10.59;85.57
46303;BME280;32029;51.358;5.628;2023-02-02T08:11:26;102072.47;;;10.84;86.18
46303;BME280;32029;51.358;5.628;2023-02-02T08:14:11;102074.00;;;10.78;86.05
46303;BME280;32029;51.358;5.628;2023-02-02T08:16:55;102035.59;;;10.43;86.08
46303;BME280;32029;51.358;5.628;2023-02-02T08:19:42;102087.34;;;10.73;86.19
46303;BME280;32029;51.358;5.628;2023-02-02T08:22:23;102095.09;;;10.78;86.48
46303;BME280;32029;51.358;5.628;2023-02-02T08:25:05;102091.38;;;10.87;86.09
46303;BME280;32029;51.358;5.628;2023-02-02T08:27:51;102002.41;;;10.36;85.59
46303;BME280;32029;51.358;5.628;2023-02-02T08:30:39;102095.78;;;10.98;85.62
46303;BME280;32029;51.358;5.628;2023-02-02T08:33:25;102021.44;;;10.73;85.01
46303;BME280;32029;51.358;5.628;2023-02-02T08:36:13;102067.53;;;10.88;85.44
46303;BME280;32029;51.358;5.628;2023-02-02T08:39:06;102012.19;;;10.57;85.09
46303;BME280;32029;51.358;5.628;2023-02-02T08:41:53;102092.41;;;11.04;84.86
46303;BME280;32029;51.358;5.628;2023-02-02T08:44:35;102008.91;;;10.53;84.66
46303;BME280;32029;51.358;5.628;2023-02-02T08:47:22;102073.50;;;11.01;84.84
46303;BME280;32029;51.358;5.628;2023-02-02T08:50:06;102093.47;;;11.11;84.81
46303;BME280;32029;51.358;5.628;2023-02-02T08:52:49;102033.28;;;10.74;84.51
46303;BME280;32029;51.358;5.628;2023-02-02T08:55:34;102006.16;;;10.53;84.44
46303;BME280;32029;51.358;5.628;2023-02-02T08:58:19;102116.84;;;11.15;84.70
46303;BME280;32029;51.358;5.628;2023-02-02T09:01:14;102127.22;;;11.21;84.17
46303;BME280;32029;51.358;5.628;2023-02-02T09:03:55;102070.94;;;10.82;84.10
46303;BME280;32029;51.358;5.628;2023-02-02T09:06:42;102118.91;;;11.13;84.17
46303;BME280;32029;51.358;5.628;2023-02-02T09:09:20;102070.94;;;10.82;83.99
46303;BME280;32029;51.358;5.628;2023-02-02T09:12:06;102131.66;;;11.22;83.41
46303;BME280;32029;51.358;5.628;2023-02-02T09:14:54;102093.28;;;10.87;83.38
46303;BME280;32029;51.358;5.628;2023-02-02T09:17:30;102135.56;;;11.12;83.21
46303;BME280;32029;51.358;5.628;2023-02-02T09:20:10;102121.66;;;11.13;82.64
46303;BME280;32029;51.358;5.628;2023-02-02T09:22:54;102138.13;;;11.13;83.39
46303;BME280;32029;51.358;5.628;2023-02-02T09:25:38;102173.72;;;11.41;82.76
46303;BME280;32029;51.358;5.628;2023-02-02T09:28:22;102154.75;;;11.29;82.65
46303;BME280;32029;51.358;5.628;2023-02-02T09:31:08;102171.75;;;11.51;82.38
46303;BME280;32029;51.358;5.628;2023-02-02T09:33:49;102154.75;;;11.29;82.11
46303;BME280;32029;51.358;5.628;2023-02-02T09:36:35;102166.94;;;11.53;82.31
46303;BME280;32029;51.358;5.628;2023-02-02T09:39:19;102141.66;;;11.23;81.94
46303;BME280;32029;51.358;5.628;2023-02-02T09:42:19;102188.56;;;11.48;81.72
46303;BME280;32029;51.358;5.628;2023-02-02T09:45:17;102181.78;;;11.42;81.60
46303;BME280;32029;51.358;5.628;2023-02-02T09:48:30;102206.78;;;11.49;81.75
46303;BME280;32029;51.358;5.628;2023-02-02T09:51:20;102183.69;;;11.42;81.84
46303;BME280;32029;51.358;5.628;2023-02-02T09:56:56;102137.09;;;11.14;81.57
46303;BME280;32029;51.358;5.628;2023-02-02T09:59:44;102222.16;;;11.60;81.76
46303;BME280;32029;51.358;5.628;2023-02-02T10:02:43;102157.59;;;11.20;81.82
46303;BME280;32029;51.358;5.628;2023-02-02T10:05:30;102243.16;;;11.69;81.98
46303;BME280;32029;51.358;5.628;2023-02-02T10:08:14;102233.56;;;11.73;81.64
46303;BME280;32029;51.358;5.628;2023-02-02T10:10:57;102236.88;;;11.76;81.49
46303;BME280;32029;51.358;5.628;2023-02-02T10:13:46;102235.38;;;11.82;80.85
46303;BME280;32029;51.358;5.628;2023-02-02T10:16:28;102234.91;;;11.87;80.97
46303;BME280;32029;51.358;5.628;2023-02-02T10:19:15;102214.56;;;11.80;80.72
46303;BME280;32029;51.358;5.628;2023-02-02T10:22:14;102255.78;;;11.97;80.35
46303;BME280;32029;51.358;5.628;2023-02-02T10:25:01;102185.56;;;11.59;80.28
46303;BME280;32029;51.358;5.628;2023-02-02T10:27:59;102239.94;;;11.91;80.26
46303;BME280;32029;51.358;5.628;2023-02-02T10:30:54;102238.66;;;11.86;80.65
46303;BME280;32029;51.358;5.628;2023-02-02T10:33:41;102190.25;;;11.67;80.81
46303;BME280;32029;51.358;5.628;2023-02-02T10:45:52;102195.78;;;11.75;80.41
46303;BME280;32029;51.358;5.628;2023-02-02T10:48:40;102238.09;;;12.00;79.99
46303;BME280;32029;51.358;5.628;2023-02-02T10:51:30;102243.91;;;11.97;80.15
46303;BME280;32029;51.358;5.628;2023-02-02T10:54:37;102191.09;;;11.67;80.09
46303;BME280;32029;51.358;5.628;2023-02-02T10:57:18;102223.31;;;12.01;80.18
46303;BME280;32029;51.358;5.628;2023-02-02T11:00:24;102232.63;;;12.08;79.98
46303;BME280;32029;51.358;5.628;2023-02-02T11:03:15;102211.63;;;11.99;79.32
46303;BME280;32029;51.358;5.628;2023-02-02T11:06:01;102252.59;;;12.10;79.37
46303;BME280;32029;51.358;5.628;2023-02-02T11:08:58;102254.31;;;12.11;78.88
46303;BME280;32029;51.358;5.628;2023-02-02T11:11:50;102233.44;;;12.00;79.29
46303;BME280;32029;51.358;5.628;2023-02-02T11:15:05;102255.44;;;12.00;79.42
46303;BME280;32029;51.358;5.628;2023-02-02T11:17:48;102257.34;;;12.00;79.29
46303;BME280;32029;51.358;5.628;2023-02-02T11:20:38;102255.25;;;11.94;79.42
46303;BME280;32029;51.358;5.628;2023-02-02T11:23:24;102240.88;;;11.82;79.34
46303;BME280;32029;51.358;5.628;2023-02-02T11:26:13;102250.22;;;11.89;79.75
46303;BME280;32029;51.358;5.628;2023-02-02T11:29:03;102242.44;;;11.85;79.87
46303;BME280;32029;51.358;5.628;2023-02-02T11:31:48;102212.59;;;11.72;79.83
46303;BME280;32029;51.358;5.628;2023-02-02T11:34:35;102238.59;;;11.95;79.47
46303;BME280;32029;51.358;5.628;2023-02-02T11:37:24;102243.94;;;12.05;79.61
46303;BME280;32029;51.358;5.628;2023-02-02T11:43:28;102242.78;;;12.08;79.77
46303;BME280;32029;51.358;5.628;2023-02-02T11:46:30;102248.81;;;12.11;79.34
46303;BME280;32029;51.358;5.628;2023-02-02T11:49:18;102231.00;;;11.97;79.55
46303;BME280;32029;51.358;5.628;2023-02-02T11:52:14;102158.56;;;11.55;79.13
46303;BME280;32029;51.358;5.628;2023-02-02T11:55:17;102239.53;;;12.12;78.68
46303;BME280;32029;51.358;5.628;2023-02-02T12:01:15;102200.88;;;11.88;78.78
46303;BME280;32029;51.358;5.628;2023-02-02T12:04:26;102225.72;;;12.04;79.11
46303;BME280;32029;51.358;5.628;2023-02-02T12:07:31;102196.41;;;11.87;78.79
46303;BME280;32029;51.358;5.628;2023-02-02T12:13:34;102189.56;;;11.73;79.69
46303;BME280;32029;51.358;5.628;2023-02-02T12:25:34;102209.47;;;12.19;79.36
46303;BME280;32029;51.358;5.628;2023-02-02T12:35:10;102205.41;;;12.31;78.82
46303;BME280;32029;51.358;5.628;2023-02-02T12:43:43;102090.06;;;11.69;78.87
46303;BME280;32029;51.358;5.628;2023-02-02T12:52:45;102173.72;;;12.19;78.44
46303;BME280;32029;51.358;5.628;2023-02-02T13:07:31;102206.69;;;12.45;77.92
46303;BME280;32029;51.358;5.628;2023-02-02T13:10:46;102188.91;;;12.39;78.28
46303;BME280;32029;51.358;5.628;2023-02-02T13:13:38;102201.03;;;12.55;78.09
46303;BME280;32029;51.358;5.628;2023-02-02T13:16:23;102177.38;;;12.36;77.88
46303;BME280;32029;51.358;5.628;2023-02-02T13:19:25;102157.56;;;12.32;77.55
46303;BME280;32029;51.358;5.628;2023-02-02T13:22:33;102199.09;;;12.47;77.93
46303;BME280;32029;51.358;5.628;2023-02-02T13:25:24;102195.66;;;12.45;77.97
46303;BME280;32029;51.358;5.628;2023-02-02T13:28:08;102143.44;;;12.19;77.97
46303;BME280;32029;51.358;5.628;2023-02-02T13:30:53;102194.16;;;12.59;78.04
46303;BME280;32029;51.358;5.628;2023-02-02T13:33:38;102172.78;;;12.44;77.82
46303;BME280;32029;51.358;5.628;2023-02-02T13:36:30;102106.81;;;12.18;78.12
46303;BME280;32029;51.358;5.628;2023-02-02T13:39:25;102193.50;;;12.65;77.81
46303;BME280;32029;51.358;5.628;2023-02-02T13:42:21;102191.91;;;12.62;77.97
46303;BME280;32029;51.358;5.628;2023-02-02T14:00:27;102202.88;;;12.46;79.50
46303;BME280;32029;51.358;5.628;2023-02-02T14:03:34;102203.72;;;12.38;80.92
46303;BME280;32029;51.358;5.628;2023-02-02T14:09:14;102173.53;;;12.20;81.11
46303;BME280;32029;51.358;5.628;2023-02-02T14:12:10;102143.19;;;12.04;81.18
46303;BME280;32029;51.358;5.628;2023-02-02T14:14:55;102183.84;;;12.18;81.49
46303;BME280;32029;51.358;5.628;2023-02-02T14:23:54;102198.53;;;12.35;81.87
46303;BME280;32029;51.358;5.628;2023-02-02T14:26:51;102207.84;;;12.34;82.20
46303;BME280;32029;51.358;5.628;2023-02-02T14:29:56;102210.41;;;12.36;82.11
46303;BME280;32029;51.358;5.628;2023-02-02T14:32:27;102221.81;;;12.41;82.28
46303;BME280;32029;51.358;5.628;2023-02-02T14:38:54;102216.63;;;12.38;81.92
46303;BME280;32029;51.358;5.628;2023-02-02T14:41:25;102215.16;;;12.17;82.39
46303;BME280;32029;51.358;5.628;2023-02-02T14:44:31;102169.84;;;11.77;82.71
46303;BME280;32029;51.358;5.628;2023-02-02T14:47:15;102226.97;;;12.10;83.63
46303;BME280;32029;51.358;5.628;2023-02-02T14:49:57;102224.38;;;12.08;85.04
46303;BME280;32029;51.358;5.628;2023-02-02T14:52:36;102192.00;;;11.94;87.02
46303;BME280;32029;51.358;5.628;2023-02-02T14:55:21;102221.59;;;12.00;87.80
46303;BME280;32029;51.358;5.628;2023-02-02T14:58:04;102240.78;;;11.92;89.91
46303;BME280;32029;51.358;5.628;2023-02-02T15:09:53;102225.47;;;11.45;92.30
46303;BME280;32029;51.358;5.628;2023-02-02T15:12:30;102257.72;;;11.61;92.78
46303;BME280;32029;51.358;5.628;2023-02-02T15:15:24;102254.91;;;11.53;93.25
46303;BME280;32029;51.358;5.628;2023-02-02T15:18:14;102224.59;;;11.27;93.58
46303;BME280;32029;51.358;5.628;2023-02-02T15:20:57;102261.44;;;11.52;93.86
46303;BME280;32029;51.358;5.628;2023-02-02T15:23:51;102218.59;;;11.23;93.82
46303;BME280;32029;51.358;5.628;2023-02-02T15:26:30;102260.09;;;11.56;93.96
46303;BME280;32029;51.358;5.628;2023-02-02T15:32:24;102240.00;;;11.38;94.19
46303;BME280;32029;51.358;5.628;2023-02-02T15:35:22;102215.28;;;11.20;94.56
46303;BME280;32029;51.358;5.628;2023-02-02T15:38:11;102270.84;;;11.49;95.25
46303;BME280;32029;51.358;5.628;2023-02-02T15:41:04;102267.56;;;11.46;95.28
46303;BME280;32029;51.358;5.628;2023-02-02T15:43:50;102241.88;;;11.19;95.28
46303;BME280;32029;51.358;5.628;2023-02-02T15:46:38;102275.03;;;11.36;96.11
46303;BME280;32029;51.358;5.628;2023-02-02T15:49:25;102281.38;;;11.36;96.34
46303;BME280;32029;51.358;5.628;2023-02-02T15:52:30;102255.97;;;11.16;96.09
46303;BME280;32029;51.358;5.628;2023-02-02T15:55:32;102282.72;;;11.32;96.98
46303;BME280;32029;51.358;5.628;2023-02-02T15:58:36;102290.91;;;11.24;97.67
46303;BME280;32029;51.358;5.628;2023-02-02T16:01:24;102270.31;;;11.10;97.66
46303;BME280;32029;51.358;5.628;2023-02-02T16:04:32;102285.94;;;11.10;98.33
46303;BME280;32029;51.358;5.628;2023-02-02T16:07:24;102292.59;;;11.07;98.62
46303;BME280;32029;51.358;5.628;2023-02-02T16:10:16;102279.41;;;10.93;98.69